createdAt,value
2018-03-04T00:00:23.780Z,1002.09
2018-03-04T00:01:23.788Z,1002.1
2018-03-04T00:02:23.796Z,1002.13
2018-03-04T00:03:23.806Z,1002.09
2018-03-04T00:04:23.815Z,1002.1
2018-03-04T00:05:23.823Z,1002.07
2018-03-04T00:06:23.834Z,1002.06
2018-03-04T00:08:23.852Z,1002.07
2018-03-04T00:09:23.858Z,1002.06
2018-03-04T00:10:23.869Z,1002.1
2018-03-04T00:11:23.877Z,1002.08
2018-03-04T00:12:23.884Z,1002.06
2018-03-04T00:13:23.892Z,1002.08
2018-03-04T00:14:23.901Z,1002.07
2018-03-04T00:15:23.910Z,1002.13
2018-03-04T00:16:23.919Z,1002.12
2018-03-04T00:17:23.926Z,1002.16
2018-03-04T00:18:23.935Z,1002.15
2018-03-04T00:19:23.944Z,1002.14
2018-03-04T00:20:23.952Z,1002.18
2018-03-04T00:21:23.961Z,1002.16
2018-03-04T00:23:23.979Z,1002.14
2018-03-04T00:24:23.987Z,1002.18
2018-03-04T00:25:23.996Z,1002.15
2018-03-04T00:26:24.005Z,1002.15
2018-03-04T00:27:24.014Z,1002.17
2018-03-04T00:28:24.026Z,1002.18
2018-03-04T00:29:24.031Z,1002.22
2018-03-04T00:30:24.040Z,1002.21
2018-03-04T00:31:24.047Z,1002.23
2018-03-04T00:32:24.056Z,1002.22
2018-03-04T00:33:24.066Z,1002.21
2018-03-04T00:34:24.074Z,1002.2
2018-03-04T00:35:24.082Z,1002.16
2018-03-04T00:36:24.093Z,1002.21
2018-03-04T00:37:24.099Z,1002.21
2018-03-04T00:38:24.108Z,1002.23
2018-03-04T00:39:24.116Z,1002.21
2018-03-04T00:40:24.124Z,1002.19
2018-03-04T00:41:24.134Z,1002.2
2018-03-04T00:42:24.144Z,1002.21
2018-03-04T00:43:24.150Z,1002.23
2018-03-04T00:44:24.159Z,1002.2
2018-03-04T00:45:24.168Z,1002.18
2018-03-04T00:46:24.176Z,1002.21
2018-03-04T00:47:24.184Z,1002.18
2018-03-04T00:48:24.193Z,1002.22
2018-03-04T00:49:24.203Z,1002.22
2018-03-04T00:50:24.210Z,1002.22
2018-03-04T00:51:24.219Z,1002.26
2018-03-04T00:52:24.228Z,1002.27
2018-03-04T00:53:24.246Z,1002.22
2018-03-04T00:55:24.254Z,1002.17
2018-03-04T00:56:24.262Z,1002.24
2018-03-04T00:57:24.270Z,1002.17
2018-03-04T00:58:24.278Z,1002.15
2018-03-04T00:59:24.287Z,1002.13
2018-03-04T01:00:24.296Z,1002.15
2018-03-04T01:01:24.304Z,1002.1
2018-03-04T01:02:24.313Z,1002.13
2018-03-04T01:03:24.322Z,1002.13
2018-03-04T01:04:24.329Z,1002.13
2018-03-04T01:05:24.339Z,1002.1
2018-03-04T01:06:24.347Z,1002.2
2018-03-04T01:07:24.356Z,1002.16
2018-03-04T01:08:24.366Z,1002.16
2018-03-04T01:09:24.372Z,1002.18
2018-03-04T01:11:24.389Z,1002.17
2018-03-04T01:12:24.398Z,1002.14
2018-03-04T01:13:24.406Z,1002.11
2018-03-04T01:14:24.415Z,1002.04
2018-03-04T01:15:24.423Z,1002.07
2018-03-04T01:16:24.431Z,1002.04
2018-03-04T01:17:24.440Z,1002.03
2018-03-04T01:18:24.449Z,1002.02
2018-03-04T01:19:24.457Z,1002
2018-03-04T01:20:24.466Z,1001.99
2018-03-04T01:21:24.475Z,1001.94
2018-03-04T01:22:24.484Z,1001.93
2018-03-04T01:23:24.491Z,1001.88
2018-03-04T01:24:24.500Z,1001.84
2018-03-04T01:25:24.509Z,1001.82
2018-03-04T01:27:24.527Z,1001.8
2018-03-04T01:28:24.534Z,1001.74
2018-03-04T01:29:24.545Z,1001.73
2018-03-04T01:30:24.551Z,1001.75
2018-03-04T01:31:24.560Z,1001.82
2018-03-04T01:32:24.568Z,1001.77
2018-03-04T01:33:24.577Z,1001.82
2018-03-04T01:34:24.587Z,1001.79
2018-03-04T01:35:24.597Z,1001.8
2018-03-04T01:36:24.602Z,1001.79
2018-03-04T01:37:24.610Z,1001.8
2018-03-04T01:38:24.618Z,1001.77
2018-03-04T01:39:24.627Z,1001.76
2018-03-04T01:40:24.636Z,1001.73
2018-03-04T01:41:24.642Z,1001.76
2018-03-04T01:43:24.661Z,1001.81
2018-03-04T01:44:24.671Z,1001.81
2018-03-04T01:45:24.678Z,1001.78
2018-03-04T01:46:24.686Z,1001.8
2018-03-04T01:47:24.694Z,1001.76
2018-03-04T01:48:24.702Z,1001.77
2018-03-04T01:49:24.711Z,1001.75
2018-03-04T01:50:24.720Z,1001.73
2018-03-04T01:51:24.729Z,1001.74
2018-03-04T01:52:24.736Z,1001.78
2018-03-04T01:53:24.744Z,1001.79
2018-03-04T01:54:24.754Z,1001.82
2018-03-04T01:55:24.763Z,1001.86
2018-03-04T01:56:24.771Z,1001.86
2018-03-04T01:58:24.788Z,1001.83
2018-03-04T01:59:24.799Z,1001.81
2018-03-04T02:00:24.812Z,1001.82
2018-03-04T02:01:24.820Z,1001.81
2018-03-04T02:02:24.824Z,1001.82
2018-03-04T02:03:24.829Z,1001.81
2018-03-04T02:04:24.839Z,1001.87
2018-03-04T02:05:24.847Z,1001.81
2018-03-04T02:06:24.857Z,1001.77
2018-03-04T02:07:24.899Z,1001.77
2018-03-04T02:08:24.878Z,1001.76
2018-03-04T02:09:24.880Z,1001.73
2018-03-04T02:10:24.888Z,1001.78
2018-03-04T02:11:24.897Z,1001.75
2018-03-04T02:12:24.906Z,1001.72
2018-03-04T02:13:24.915Z,1001.75
2018-03-04T02:14:24.922Z,1001.71
2018-03-04T02:15:24.930Z,1001.7
2018-03-04T02:16:24.939Z,1001.69
2018-03-04T02:17:24.947Z,1001.74
2018-03-04T02:18:24.955Z,1001.73
2018-03-04T02:19:24.989Z,1001.71
2018-03-04T02:20:24.973Z,1001.74
2018-03-04T02:21:24.981Z,1001.78
2018-03-04T02:22:24.992Z,1001.82
2018-03-04T02:23:24.998Z,1001.85
2018-03-04T02:24:25.006Z,1001.85
2018-03-04T02:25:25.014Z,1001.86
2018-03-04T02:26:25.023Z,1001.86
2018-03-04T02:27:25.031Z,1001.82
2018-03-04T02:28:25.039Z,1001.84
2018-03-04T02:30:25.057Z,1001.8
2018-03-04T02:31:25.064Z,1001.81
2018-03-04T02:32:25.073Z,1001.81
2018-03-04T02:33:25.082Z,1001.8
2018-03-04T02:34:25.092Z,1001.77
2018-03-04T02:35:25.098Z,1001.76
2018-03-04T02:36:25.105Z,1001.79
2018-03-04T02:37:25.114Z,1001.81
2018-03-04T02:38:25.124Z,1001.79
2018-03-04T02:39:25.141Z,1001.76
2018-03-04T02:40:25.144Z,1001.81
2018-03-04T02:41:25.148Z,1001.83
2018-03-04T02:42:25.157Z,1001.79
2018-03-04T02:43:25.164Z,1001.84
2018-03-04T02:44:25.174Z,1001.84
2018-03-04T02:46:25.190Z,1001.78
2018-03-04T02:47:25.208Z,1001.79
2018-03-04T02:48:25.206Z,1001.76
2018-03-04T02:49:25.214Z,1001.76
2018-03-04T02:50:25.222Z,1001.8
2018-03-04T02:51:25.230Z,1001.78
2018-03-04T02:52:25.239Z,1001.74
2018-03-04T02:53:25.247Z,1001.73
2018-03-04T02:54:25.254Z,1001.77
2018-03-04T02:55:25.264Z,1001.75
2018-03-04T02:56:25.272Z,1001.75
2018-03-04T02:57:25.286Z,1001.77
2018-03-04T02:58:25.287Z,1001.76
2018-03-04T02:59:25.296Z,1001.74
2018-03-04T03:00:25.305Z,1001.74
2018-03-04T03:02:25.321Z,1001.8
2018-03-04T03:03:25.330Z,1001.75
2018-03-04T03:04:25.339Z,1001.75
2018-03-04T03:05:25.346Z,1001.72
2018-03-04T03:06:25.354Z,1001.71
2018-03-04T03:07:25.362Z,1001.73
2018-03-04T03:08:25.373Z,1001.7
2018-03-04T03:09:25.379Z,1001.71
2018-03-04T03:11:25.395Z,1001.75
2018-03-04T03:12:25.403Z,1001.71
2018-03-04T03:13:25.415Z,1001.74
2018-03-04T03:14:25.420Z,1001.71
2018-03-04T03:15:25.529Z,1001.74
2018-03-04T03:16:25.436Z,1001.69
2018-03-04T03:18:25.453Z,1001.69
2018-03-04T03:19:25.489Z,1001.67
2018-03-04T03:20:25.470Z,1001.65
2018-03-04T03:21:25.477Z,1001.66
2018-03-04T03:22:25.491Z,1001.68
2018-03-04T03:23:25.494Z,1001.62
2018-03-04T03:24:25.503Z,1001.62
2018-03-04T03:25:25.510Z,1001.63
2018-03-04T03:26:25.519Z,1001.6
2018-03-04T03:27:25.533Z,1001.58
2018-03-04T03:28:25.535Z,1001.57
2018-03-04T03:29:25.543Z,1001.59
2018-03-04T03:30:25.554Z,1001.56
2018-03-04T03:31:25.561Z,1001.57
2018-03-04T03:33:25.577Z,1001.62
2018-03-04T03:34:25.585Z,1001.7
2018-03-04T03:35:25.594Z,1001.67
2018-03-04T03:36:25.602Z,1001.68
2018-03-04T03:37:25.610Z,1001.71
2018-03-04T03:38:25.618Z,1001.7
2018-03-04T03:39:25.627Z,1001.71
2018-03-04T03:40:25.638Z,1001.69
2018-03-04T03:41:25.642Z,1001.69
2018-03-04T03:42:25.651Z,1001.7
2018-03-04T03:43:25.659Z,1001.75
2018-03-04T03:44:25.668Z,1001.75
2018-03-04T03:45:25.675Z,1001.72
2018-03-04T03:46:25.684Z,1001.7
2018-03-04T03:47:25.693Z,1001.76
2018-03-04T03:48:25.702Z,1001.76
2018-03-04T03:49:25.708Z,1001.77
2018-03-04T03:50:25.717Z,1001.7
2018-03-04T03:51:25.725Z,1001.66
2018-03-04T03:52:25.733Z,1001.63
2018-03-04T03:53:25.741Z,1001.64
2018-03-04T03:54:25.754Z,1001.64
2018-03-04T03:55:25.759Z,1001.6
2018-03-04T03:56:25.765Z,1001.59
2018-03-04T03:57:25.774Z,1001.55
2018-03-04T03:58:25.782Z,1001.61
2018-03-04T03:59:25.797Z,1001.59
2018-03-04T04:00:25.802Z,1001.57
2018-03-04T04:01:25.809Z,1001.58
2018-03-04T04:02:25.815Z,1001.51
2018-03-04T04:03:25.823Z,1001.57
2018-03-04T04:05:25.840Z,1001.59
2018-03-04T04:06:25.847Z,1001.56
2018-03-04T04:07:25.855Z,1001.57
2018-03-04T04:08:25.863Z,1001.58
2018-03-04T04:09:25.872Z,1001.59
2018-03-04T04:10:25.883Z,1001.53
2018-03-04T04:11:25.888Z,1001.5
2018-03-04T04:12:25.900Z,1001.51
2018-03-04T04:13:25.905Z,1001.48
2018-03-04T04:14:25.913Z,1001.47
2018-03-04T04:15:25.922Z,1001.41
2018-03-04T04:16:25.929Z,1001.45
2018-03-04T04:17:25.937Z,1001.38
2018-03-04T04:18:25.945Z,1001.36
2018-03-04T04:19:25.953Z,1001.36
2018-03-04T04:21:25.968Z,1001.27
2018-03-04T04:22:25.977Z,1001.25
2018-03-04T04:23:25.986Z,1001.35
2018-03-04T04:24:25.993Z,1001.29
2018-03-04T04:25:26.001Z,1001.33
2018-03-04T04:26:26.009Z,1001.38
2018-03-04T04:27:26.018Z,1001.4
2018-03-04T04:28:26.027Z,1001.4
2018-03-04T04:29:26.034Z,1001.42
2018-03-04T04:30:26.043Z,1001.34
2018-03-04T04:31:26.051Z,1001.33
2018-03-04T04:32:26.059Z,1001.32
2018-03-04T04:33:26.067Z,1001.3
2018-03-04T04:34:26.075Z,1001.28
2018-03-04T04:35:26.084Z,1001.33
2018-03-04T04:37:26.100Z,1001.31
2018-03-04T04:38:26.107Z,1001.32
2018-03-04T04:39:26.115Z,1001.31
2018-03-04T04:40:26.129Z,1001.34
2018-03-04T04:41:26.131Z,1001.3
2018-03-04T04:42:26.140Z,1001.33
2018-03-04T04:43:26.148Z,1001.37
2018-03-04T04:44:26.200Z,1001.32
2018-03-04T04:45:26.214Z,1001.35
2018-03-04T04:46:26.173Z,1001.33
2018-03-04T04:47:26.180Z,1001.41
2018-03-04T04:48:26.187Z,1001.41
2018-03-04T04:49:26.199Z,1001.39
2018-03-04T04:50:26.205Z,1001.4
2018-03-04T04:51:26.212Z,1001.4
2018-03-04T04:53:26.229Z,1001.43
2018-03-04T04:54:26.236Z,1001.41
2018-03-04T04:55:26.244Z,1001.38
2018-03-04T04:56:26.253Z,1001.39
2018-03-04T04:57:26.261Z,1001.34
2018-03-04T04:58:26.268Z,1001.37
2018-03-04T04:59:26.297Z,1001.3
2018-03-04T05:00:26.287Z,1001.3
2018-03-04T05:01:26.293Z,1001.3
2018-03-04T05:02:26.300Z,1001.33
2018-03-04T05:03:26.309Z,1001.29
2018-03-04T05:04:26.318Z,1001.29
2018-03-04T05:05:26.327Z,1001.29
2018-03-04T05:06:26.334Z,1001.24
2018-03-04T05:08:26.351Z,1001.24
2018-03-04T05:09:26.358Z,1001.23
2018-03-04T05:10:26.367Z,1001.22
2018-03-04T05:11:26.374Z,1001.26
2018-03-04T05:12:26.382Z,1001.29
2018-03-04T05:13:26.390Z,1001.21
2018-03-04T05:14:26.398Z,1001.2
2018-03-04T05:15:26.408Z,1001.24
2018-03-04T05:16:26.414Z,1001.22
2018-03-04T05:17:26.422Z,1001.2
2018-03-04T05:18:26.431Z,1001.25
2018-03-04T05:19:26.439Z,1001.22
2018-03-04T05:20:26.446Z,1001.2
2018-03-04T05:21:26.455Z,1001.22
2018-03-04T05:22:26.467Z,1001.21
2018-03-04T05:23:26.471Z,1001.26
2018-03-04T05:24:26.478Z,1001.22
2018-03-04T05:25:26.487Z,1001.18
2018-03-04T05:26:26.495Z,1001.16
2018-03-04T05:27:26.501Z,1001.24
2018-03-04T05:28:26.510Z,1001.18
2018-03-04T05:29:26.522Z,1001.22
2018-03-04T05:30:26.527Z,1001.2
2018-03-04T05:31:26.537Z,1001.21
2018-03-04T05:32:26.543Z,1001.17
2018-03-04T05:33:26.551Z,1001.21
2018-03-04T05:34:26.559Z,1001.2
2018-03-04T05:35:26.571Z,1001.21
2018-03-04T05:36:26.574Z,1001.25
2018-03-04T05:37:26.583Z,1001.26
2018-03-04T05:38:26.590Z,1001.27
2018-03-04T05:40:26.606Z,1001.3
2018-03-04T05:41:26.615Z,1001.28
2018-03-04T05:42:26.622Z,1001.25
2018-03-04T05:43:26.631Z,1001.33
2018-03-04T05:44:26.650Z,1001.34
2018-03-04T05:45:26.646Z,1001.37
2018-03-04T05:46:26.656Z,1001.4
2018-03-04T05:47:26.663Z,1001.38
2018-03-04T05:48:26.676Z,1001.4
2018-03-04T05:49:26.678Z,1001.38
2018-03-04T05:50:26.687Z,1001.38
2018-03-04T05:51:26.694Z,1001.41
2018-03-04T05:52:26.703Z,1001.38
2018-03-04T05:53:26.713Z,1001.35
2018-03-04T05:54:26.719Z,1001.33
2018-03-04T05:56:26.739Z,1001.29
2018-03-04T05:57:26.742Z,1001.29
2018-03-04T05:58:26.750Z,1001.31
2018-03-04T05:59:26.759Z,1001.33
2018-03-04T06:00:26.766Z,1001.35
2018-03-04T06:01:26.774Z,1001.38
2018-03-04T06:02:26.783Z,1001.43
2018-03-04T06:03:26.791Z,1001.44
2018-03-04T06:04:26.799Z,1001.42
2018-03-04T06:05:26.807Z,1001.42
2018-03-04T06:06:26.815Z,1001.45
2018-03-04T06:07:26.823Z,1001.42
2018-03-04T06:08:26.831Z,1001.4
2018-03-04T06:09:26.840Z,1001.42
2018-03-04T06:10:26.848Z,1001.31
2018-03-04T06:12:26.863Z,1001.34
2018-03-04T06:13:26.872Z,1001.34
2018-03-04T06:14:26.883Z,1001.3
2018-03-04T06:15:26.889Z,1001.37
2018-03-04T06:16:26.896Z,1001.34
2018-03-04T06:17:26.906Z,1001.37
2018-03-04T06:18:26.913Z,1001.4
2018-03-04T06:19:26.922Z,1001.4
2018-03-04T06:20:26.929Z,1001.37
2018-03-04T06:21:26.937Z,1001.4
2018-03-04T06:22:26.948Z,1001.34
2018-03-04T06:23:26.953Z,1001.38
2018-03-04T06:24:26.962Z,1001.36
2018-03-04T06:25:26.971Z,1001.35
2018-03-04T06:26:26.979Z,1001.36
2018-03-04T06:28:26.998Z,1001.44
2018-03-04T06:29:27.008Z,1001.46
2018-03-04T06:30:27.017Z,1001.48
2018-03-04T06:31:27.027Z,1001.49
2018-03-04T06:32:27.036Z,1001.55
2018-03-04T06:33:27.106Z,1001.57
2018-03-04T06:34:27.057Z,1001.65
2018-03-04T06:35:27.067Z,1001.66
2018-03-04T06:36:27.079Z,1001.7
2018-03-04T06:37:27.088Z,1001.71
2018-03-04T06:38:27.101Z,1001.73
2018-03-04T06:39:27.111Z,1001.75
2018-03-04T06:40:27.126Z,1001.76
2018-03-04T06:41:27.135Z,1001.76
2018-03-04T06:43:27.159Z,1001.73
2018-03-04T06:44:27.171Z,1001.71
2018-03-04T06:45:27.183Z,1001.77
2018-03-04T06:46:27.196Z,1001.78
2018-03-04T06:47:27.210Z,1001.76
2018-03-04T06:48:27.221Z,1001.8
2018-03-04T06:49:27.237Z,1001.81
2018-03-04T06:50:27.247Z,1001.84
2018-03-04T06:51:27.266Z,1001.85
2018-03-04T06:52:27.274Z,1001.88
2018-03-04T06:53:27.287Z,1001.85
2018-03-04T06:54:27.301Z,1001.87
2018-03-04T06:55:27.317Z,1001.94
2018-03-04T06:56:27.328Z,1001.92
2018-03-04T06:57:27.342Z,1001.98
2018-03-04T06:58:27.357Z,1001.97
2018-03-04T06:59:27.370Z,1001.95
2018-03-04T07:00:27.385Z,1001.98
2018-03-04T07:01:27.400Z,1001.9
2018-03-04T07:02:27.415Z,1001.91
2018-03-04T07:03:27.428Z,1001.94
2018-03-04T07:04:27.443Z,1001.94
2018-03-04T07:05:27.461Z,1001.95
2018-03-04T07:06:27.473Z,1001.95
2018-03-04T07:07:27.488Z,1001.97
2018-03-04T07:08:27.503Z,1001.95
2018-03-04T07:09:27.517Z,1001.95
2018-03-04T07:10:27.543Z,1001.95
2018-03-04T07:11:27.549Z,1001.95
2018-03-04T07:12:27.568Z,1001.95
2018-03-04T07:13:27.581Z,1001.93
2018-03-04T07:15:27.612Z,1002
2018-03-04T07:16:27.629Z,1001.91
2018-03-04T07:17:27.644Z,1001.9
2018-03-04T07:18:27.661Z,1001.84
2018-03-04T07:19:27.678Z,1001.87
2018-03-04T07:20:27.694Z,1001.86
2018-03-04T07:21:27.711Z,1001.84
2018-03-04T07:22:27.726Z,1001.87
2018-03-04T07:23:27.793Z,1001.87
2018-03-04T07:24:27.759Z,1001.86
2018-03-04T07:25:27.776Z,1001.86
2018-03-04T07:26:27.794Z,1001.98
2018-03-04T07:27:27.811Z,1001.86
2018-03-04T07:28:27.826Z,1001.79
2018-03-04T07:29:27.843Z,1001.85
2018-03-04T07:31:27.877Z,1001.83
2018-03-04T07:32:27.893Z,1001.73
2018-03-04T07:33:27.910Z,1001.76
2018-03-04T07:34:27.927Z,1001.71
2018-03-04T07:35:27.943Z,1001.69
2018-03-04T07:36:27.959Z,1001.67
2018-03-04T07:37:27.975Z,1001.66
2018-03-04T07:38:27.992Z,1001.63
2018-03-04T07:39:28.009Z,1001.73
2018-03-04T07:40:28.029Z,1001.67
2018-03-04T07:41:28.053Z,1001.54
2018-03-04T07:42:28.061Z,1001.56
2018-03-04T07:43:28.076Z,1001.44
2018-03-04T07:44:28.093Z,1001.5
2018-03-04T07:45:28.110Z,1001.47
2018-03-04T07:47:28.142Z,1001.33
2018-03-04T07:48:28.159Z,1001.37
2018-03-04T07:49:28.176Z,1001.38
2018-03-04T07:50:28.190Z,1001.33
2018-03-04T07:51:28.208Z,1001.26
2018-03-04T07:52:28.292Z,1001.36
2018-03-04T07:53:28.239Z,1001.3
2018-03-04T07:54:28.254Z,1001.3
2018-03-04T07:55:28.270Z,1001.26
2018-03-04T07:56:28.287Z,1001.25
2018-03-04T07:57:28.301Z,1001.22
2018-03-04T07:58:28.316Z,1001.24
2018-03-04T07:59:28.331Z,1001.23
2018-03-04T08:00:28.361Z,1001.19
2018-03-04T08:01:28.362Z,1001.12
2018-03-04T08:03:28.395Z,1001.18
2018-03-04T08:04:28.410Z,1001.22
2018-03-04T08:05:28.424Z,1001.15
2018-03-04T08:06:28.440Z,1001.16
2018-03-04T08:07:28.456Z,1001.16
2018-03-04T08:08:28.471Z,1001.16
2018-03-04T08:09:28.586Z,1001.09
2018-03-04T08:10:28.505Z,1001.1
2018-03-04T08:11:28.578Z,1001.12
2018-03-04T08:12:28.530Z,1001.15
2018-03-04T08:13:28.546Z,1001.09
2018-03-04T08:14:28.560Z,1001.1
2018-03-04T08:15:28.574Z,1001.12
2018-03-04T08:16:28.592Z,1001.06
2018-03-04T08:18:28.618Z,1001.05
2018-03-04T08:19:28.632Z,1001.1
2018-03-04T08:20:28.647Z,1001.11
2018-03-04T08:21:28.661Z,1001.12
2018-03-04T08:22:28.677Z,1001.06
2018-03-04T08:23:28.690Z,1001.04
2018-03-04T08:24:28.705Z,1001.12
2018-03-04T08:25:28.720Z,1001.09
2018-03-04T08:26:28.732Z,1001.1
2018-03-04T08:27:28.747Z,1001.1
2018-03-04T08:28:28.770Z,1001.12
2018-03-04T08:29:28.777Z,1001.13
2018-03-04T08:30:28.791Z,1001.08
2018-03-04T08:31:28.806Z,1001.07
2018-03-04T08:32:28.820Z,1001.08
2018-03-04T08:33:28.839Z,1001.04
2018-03-04T08:34:28.851Z,1001.05
2018-03-04T08:35:28.864Z,1001.01
2018-03-04T08:36:28.898Z,1001.06
2018-03-04T08:37:28.892Z,1001.07
2018-03-04T08:38:28.907Z,1001.08
2018-03-04T08:39:28.922Z,1001.13
2018-03-04T08:40:28.987Z,1001.17
2018-03-04T08:41:28.950Z,1001.2
2018-03-04T08:42:28.964Z,1001.15
2018-03-04T08:43:28.980Z,1001.17
2018-03-04T08:44:28.995Z,1001.16
2018-03-04T08:45:29.011Z,1001.15
2018-03-04T08:46:29.029Z,1001.12
2018-03-04T08:47:29.039Z,1001.08
2018-03-04T08:48:29.053Z,1001.02
2018-03-04T08:50:29.083Z,1000.98
2018-03-04T08:51:29.098Z,1000.97
2018-03-04T08:52:29.112Z,1000.93
2018-03-04T08:53:29.127Z,1000.95
2018-03-04T08:54:29.143Z,1001
2018-03-04T08:55:29.157Z,1000.94
2018-03-04T08:56:29.172Z,1000.89
2018-03-04T08:57:29.187Z,1000.94
2018-03-04T08:58:29.202Z,1000.93
2018-03-04T08:59:29.218Z,1000.95
2018-03-04T09:00:29.232Z,1000.92
2018-03-04T09:01:29.247Z,1000.93
2018-03-04T09:02:29.262Z,1000.98
2018-03-04T09:03:29.290Z,1000.88
2018-03-04T09:04:29.296Z,1000.86
2018-03-04T09:06:29.322Z,1000.85
2018-03-04T09:07:29.338Z,1000.89
2018-03-04T09:08:29.352Z,1000.83
2018-03-04T09:09:29.383Z,1000.87
2018-03-04T09:10:29.381Z,1000.83
2018-03-04T09:11:29.397Z,1000.84
2018-03-04T09:12:29.413Z,1000.86
2018-03-04T09:13:29.428Z,1000.82
2018-03-04T09:14:29.443Z,1000.78
2018-03-04T09:15:29.459Z,1000.83
2018-03-04T09:16:29.478Z,1000.85
2018-03-04T09:17:29.492Z,1000.81
2018-03-04T09:18:29.504Z,1000.81
2018-03-04T09:19:29.520Z,1000.77
2018-03-04T09:20:29.542Z,1000.73
2018-03-04T09:22:29.568Z,1000.67
2018-03-04T09:23:29.582Z,1000.72
2018-03-04T09:24:29.597Z,1000.64
2018-03-04T09:25:29.615Z,1000.7
2018-03-04T09:26:29.626Z,1000.7
2018-03-04T09:27:29.646Z,1000.7
2018-03-04T09:28:29.658Z,1000.74
2018-03-04T09:29:29.673Z,1000.69
2018-03-04T09:30:29.688Z,1000.77
2018-03-04T09:31:29.704Z,1000.67
2018-03-04T09:32:29.723Z,1000.68
2018-03-04T09:33:29.739Z,1000.72
2018-03-04T09:34:29.749Z,1000.63
2018-03-04T09:35:29.765Z,1000.62
2018-03-04T09:36:29.779Z,1000.64
2018-03-04T09:38:29.828Z,1000.68
2018-03-04T09:39:29.826Z,1000.66
2018-03-04T09:40:29.841Z,1000.65
2018-03-04T09:41:29.856Z,1000.62
2018-03-04T09:42:29.872Z,1000.6
2018-03-04T09:43:29.887Z,1000.55
2018-03-04T09:44:29.903Z,1000.53
2018-03-04T09:45:30.014Z,1000.64
2018-03-04T09:46:29.933Z,1000.58
2018-03-04T09:47:29.948Z,1000.49
2018-03-04T09:48:29.967Z,1000.55
2018-03-04T09:49:29.981Z,1000.54
2018-03-04T09:50:29.995Z,1000.51
2018-03-04T09:51:30.011Z,1000.59
2018-03-04T09:53:30.042Z,1000.52
2018-03-04T09:54:30.057Z,1000.58
2018-03-04T09:55:30.072Z,1000.61
2018-03-04T09:56:30.087Z,1000.61
2018-03-04T09:57:30.102Z,1000.67
2018-03-04T09:58:30.118Z,1000.69
2018-03-04T09:59:30.134Z,1000.6
2018-03-04T10:00:30.149Z,1000.63
2018-03-04T10:01:30.164Z,1000.6
2018-03-04T10:02:30.178Z,1000.63
2018-03-04T10:03:30.195Z,1000.6
2018-03-04T10:04:30.210Z,1000.56
2018-03-04T10:05:30.224Z,1000.54
2018-03-04T10:06:30.240Z,1000.57
2018-03-04T10:07:30.257Z,1000.62
2018-03-04T10:08:30.271Z,1000.57
2018-03-04T10:09:30.286Z,1000.55
2018-03-04T10:10:30.301Z,1000.57
2018-03-04T10:11:30.318Z,1000.56
2018-03-04T10:12:30.333Z,1000.52
2018-03-04T10:13:30.353Z,1000.56
2018-03-04T10:14:30.364Z,1000.51
2018-03-04T10:15:30.380Z,1000.5
2018-03-04T10:16:30.395Z,1000.46
2018-03-04T10:17:30.414Z,1000.46
2018-03-04T10:18:30.427Z,1000.45
2018-03-04T10:19:30.444Z,1000.45
2018-03-04T10:20:30.457Z,1000.45
2018-03-04T10:21:30.473Z,1000.43
2018-03-04T10:22:30.488Z,1000.38
2018-03-04T10:23:30.504Z,1000.39
2018-03-04T10:25:30.535Z,1000.43
2018-03-04T10:26:30.552Z,1000.4
2018-03-04T10:27:30.566Z,1000.34
2018-03-04T10:28:30.600Z,1000.39
2018-03-04T10:29:30.598Z,1000.38
2018-03-04T10:30:30.613Z,1000.35
2018-03-04T10:31:30.631Z,1000.4
2018-03-04T10:32:30.644Z,1000.37
2018-03-04T10:33:30.660Z,1000.34
2018-03-04T10:34:30.674Z,1000.45
2018-03-04T10:35:30.691Z,1000.27
2018-03-04T10:36:30.706Z,1000.29
2018-03-04T10:37:30.721Z,1000.26
2018-03-04T10:38:30.736Z,1000.27
2018-03-04T10:39:30.752Z,1000.31
2018-03-04T10:41:30.786Z,1000.29
2018-03-04T10:42:30.796Z,1000.3
2018-03-04T10:43:30.811Z,1000.3
2018-03-04T10:44:30.826Z,1000.24
2018-03-04T10:45:30.841Z,1000.24
2018-03-04T10:46:30.856Z,1000.21
2018-03-04T10:47:30.872Z,1000.14
2018-03-04T10:48:30.888Z,1000.12
2018-03-04T10:49:30.900Z,1000.11
2018-03-04T10:50:30.916Z,1000.1
2018-03-04T10:51:30.931Z,1000.07
2018-03-04T10:52:31.053Z,1000
2018-03-04T10:53:30.960Z,1000.08
2018-03-04T10:54:30.975Z,1000.05
2018-03-04T10:55:30.989Z,1000.1
2018-03-04T10:57:31.018Z,1000.01
2018-03-04T10:58:31.033Z,1000.04
2018-03-04T10:59:31.048Z,1000.04
2018-03-04T11:00:31.062Z,1000.04
2018-03-04T11:01:31.081Z,1000
2018-03-04T11:02:31.092Z,1000
2018-03-04T11:03:31.105Z,999.97
2018-03-04T11:04:31.120Z,999.95
2018-03-04T11:05:31.135Z,999.97
2018-03-04T11:06:31.149Z,999.91
2018-03-04T11:07:31.164Z,999.92
2018-03-04T11:08:31.178Z,999.84
2018-03-04T11:09:31.192Z,999.9
2018-03-04T11:10:31.207Z,999.95
2018-03-04T11:11:31.244Z,999.97
2018-03-04T11:13:31.249Z,999.92
2018-03-04T11:14:31.265Z,999.9
2018-03-04T11:15:31.278Z,999.91
2018-03-04T11:16:31.298Z,999.9
2018-03-04T11:17:31.306Z,999.87
2018-03-04T11:18:31.320Z,999.86
2018-03-04T11:19:31.334Z,999.82
2018-03-04T11:20:31.371Z,999.83
2018-03-04T11:21:31.363Z,999.88
2018-03-04T11:22:31.377Z,999.79
2018-03-04T11:23:31.391Z,999.78
2018-03-04T11:24:31.405Z,999.82
2018-03-04T11:25:31.420Z,999.85
2018-03-04T11:26:31.435Z,999.87
2018-03-04T11:28:31.498Z,999.83
2018-03-04T11:29:31.477Z,999.81
2018-03-04T11:30:31.496Z,999.8
2018-03-04T11:31:31.506Z,999.79
2018-03-04T11:32:31.519Z,999.77
2018-03-04T11:33:31.534Z,999.84
2018-03-04T11:34:31.549Z,999.76
2018-03-04T11:35:31.563Z,999.72
2018-03-04T11:36:31.577Z,999.73
2018-03-04T11:37:31.591Z,999.64
2018-03-04T11:38:31.607Z,999.68
2018-03-04T11:39:31.621Z,999.66
2018-03-04T11:40:31.634Z,999.66
2018-03-04T11:41:31.649Z,999.65
2018-03-04T11:42:31.663Z,999.62
2018-03-04T11:43:31.679Z,999.6
2018-03-04T11:44:31.692Z,999.61
2018-03-04T11:45:31.707Z,999.58
2018-03-04T11:46:31.724Z,999.66
2018-03-04T11:47:31.735Z,999.59
2018-03-04T11:48:31.749Z,999.53
2018-03-04T11:49:31.765Z,999.59
2018-03-04T11:50:31.779Z,999.56
2018-03-04T11:51:31.793Z,999.6
2018-03-04T11:52:31.807Z,999.59
2018-03-04T11:53:31.821Z,999.53
2018-03-04T11:54:31.837Z,999.52
2018-03-04T11:55:31.854Z,999.51
2018-03-04T11:56:31.867Z,999.56
2018-03-04T11:57:31.883Z,999.49
2018-03-04T11:58:31.893Z,999.53
2018-03-04T12:00:31.922Z,999.46
2018-03-04T12:01:31.937Z,999.5
2018-03-04T12:02:31.951Z,999.46
2018-03-04T12:03:31.966Z,999.46
2018-03-04T12:04:31.981Z,999.44
2018-03-04T12:05:31.996Z,999.47
2018-03-04T12:06:32.010Z,999.48
2018-03-04T12:07:32.024Z,999.43
2018-03-04T12:08:32.039Z,999.47
2018-03-04T12:09:32.062Z,999.43
2018-03-04T12:10:32.068Z,999.44
2018-03-04T12:11:32.086Z,999.44
2018-03-04T12:12:32.097Z,999.38
2018-03-04T12:13:32.112Z,999.34
2018-03-04T12:14:32.126Z,999.33
2018-03-04T12:16:32.156Z,999.35
2018-03-04T12:17:32.170Z,999.32
2018-03-04T12:18:32.185Z,999.33
2018-03-04T12:19:32.199Z,999.33
2018-03-04T12:20:32.214Z,999.35
2018-03-04T12:21:32.229Z,999.37
2018-03-04T12:22:32.244Z,999.46
2018-03-04T12:23:32.257Z,999.34
2018-03-04T12:24:32.272Z,999.32
2018-03-04T12:25:32.286Z,999.29
2018-03-04T12:26:32.302Z,999.28
2018-03-04T12:27:32.316Z,999.37
2018-03-04T12:28:32.330Z,999.26
2018-03-04T12:29:32.345Z,999.31
2018-03-04T12:30:32.358Z,999.28
2018-03-04T12:32:32.388Z,999.25
2018-03-04T12:33:32.403Z,999.24
2018-03-04T12:34:32.418Z,999.2
2018-03-04T12:35:32.432Z,999.17
2018-03-04T12:36:32.450Z,999.2
2018-03-04T12:37:32.461Z,999.06
2018-03-04T12:38:32.476Z,999.1
2018-03-04T12:39:32.490Z,999.09
2018-03-04T12:40:32.504Z,999.1
2018-03-04T12:41:32.520Z,999.1
2018-03-04T12:42:32.634Z,999.17
2018-03-04T12:43:32.549Z,999.12
2018-03-04T12:44:32.564Z,999.06
2018-03-04T12:45:32.579Z,999.12
2018-03-04T12:46:32.637Z,999.13
2018-03-04T12:48:32.623Z,999.05
2018-03-04T12:49:32.637Z,999.05
2018-03-04T12:50:32.652Z,998.99
2018-03-04T12:51:32.666Z,999.09
2018-03-04T12:52:32.686Z,998.98
2018-03-04T12:53:32.695Z,998.97
2018-03-04T12:54:32.713Z,998.94